sensor_id;sensor_type;location;lat;lon;timestamp;temperature;humidity
24448;DHT22;13348;50.984;5.822;2023-05-17T00:00:11;7.30;99.90
24448;DHT22;13348;50.984;5.822;2023-05-17T00:02:40;7.30;99.90
24448;DHT22;13348;50.984;5.822;2023-05-17T00:05:07;7.20;99.90
24448;DHT22;13348;50.984;5.822;2023-05-17T00:07:36;7.20;99.90
24448;DHT22;13348;50.984;5.822;2023-05-17T00:10:03;7.20;99.90
24448;DHT22;13348;50.984;5.822;2023-05-17T00:12:29;7.20;99.90
24448;DHT22;13348;50.984;5.822;2023-05-17T00:14:56;7.10;99.90
24448;DHT22;13348;50.984;5.822;2023-05-17T00:17:23;7.20;99.90
24448;DHT22;13348;50.984;5.822;2023-05-17T00:19:52;7.10;99.90
24448;DHT22;13348;50.984;5.822;2023-05-17T00:22:18;7.00;99.90
24448;DHT22;13348;50.984;5.822;2023-05-17T00:24:45;6.90;99.90
24448;DHT22;13348;50.984;5.822;2023-05-17T00:27:12;7.00;99.90
24448;DHT22;13348;50.984;5.822;2023-05-17T00:29:39;6.90;99.90
24448;DHT22;13348;50.984;5.822;2023-05-17T00:32:06;6.90;99.90
24448;DHT22;13348;50.984;5.822;2023-05-17T00:34:33;6.80;99.90
24448;DHT22;13348;50.984;5.822;2023-05-17T00:37:01;6.90;99.90
24448;DHT22;13348;50.984;5.822;2023-05-17T00:39:28;6.80;99.90
24448;DHT22;13348;50.984;5.822;2023-05-17T00:41:55;6.70;99.90
24448;DHT22;13348;50.984;5.822;2023-05-17T00:44:22;6.80;99.90
24448;DHT22;13348;50.984;5.822;2023-05-17T00:46:49;6.80;99.90
24448;DHT22;13348;50.984;5.822;2023-05-17T00:49:16;6.70;99.90
24448;DHT22;13348;50.984;5.822;2023-05-17T00:51:43;6.60;99.90
24448;DHT22;13348;50.984;5.822;2023-05-17T00:54:12;6.60;99.90
24448;DHT22;13348;50.984;5.822;2023-05-17T00:56:39;6.60;99.90
24448;DHT22;13348;50.984;5.822;2023-05-17T00:59:06;6.60;99.90
24448;DHT22;13348;50.984;5.822;2023-05-17T01:01:34;6.50;99.90
24448;DHT22;13348;50.984;5.822;2023-05-17T01:04:02;6.40;99.90
24448;DHT22;13348;50.984;5.822;2023-05-17T01:06:29;6.50;99.90
24448;DHT22;13348;50.984;5.822;2023-05-17T01:08:56;6.50;99.90
24448;DHT22;13348;50.984;5.822;2023-05-17T01:11:27;6.50;99.90
24448;DHT22;13348;50.984;5.822;2023-05-17T01:13:58;6.60;99.90
24448;DHT22;13348;50.984;5.822;2023-05-17T01:16:29;6.70;99.90
24448;DHT22;13348;50.984;5.822;2023-05-17T01:18:57;6.70;99.90
24448;DHT22;13348;50.984;5.822;2023-05-17T01:21:34;6.60;99.90
24448;DHT22;13348;50.984;5.822;2023-05-17T01:24:05;6.40;99.90
24448;DHT22;13348;50.984;5.822;2023-05-17T01:26:39;6.30;99.90
24448;DHT22;13348;50.984;5.822;2023-05-17T01:29:08;6.40;99.90
24448;DHT22;13348;50.984;5.822;2023-05-17T01:31:35;6.40;99.90
24448;DHT22;13348;50.984;5.822;2023-05-17T01:34:05;6.30;99.90
24448;DHT22;13348;50.984;5.822;2023-05-17T01:36:32;6.50;99.90
24448;DHT22;13348;50.984;5.822;2023-05-17T01:38:59;6.60;99.90
24448;DHT22;13348;50.984;5.822;2023-05-17T01:41:27;6.50;99.90
24448;DHT22;13348;50.984;5.822;2023-05-17T01:43:59;6.60;99.90
24448;DHT22;13348;50.984;5.822;2023-05-17T01:46:30;6.70;99.90
24448;DHT22;13348;50.984;5.822;2023-05-17T01:48:59;6.70;99.90
24448;DHT22;13348;50.984;5.822;2023-05-17T01:51:28;6.70;99.90
24448;DHT22;13348;50.984;5.822;2023-05-17T01:54:00;6.60;99.90
24448;DHT22;13348;50.984;5.822;2023-05-17T01:56:29;6.60;99.90
24448;DHT22;13348;50.984;5.822;2023-05-17T01:58:59;6.50;99.90
24448;DHT22;13348;50.984;5.822;2023-05-17T02:01:28;6.50;99.90
24448;DHT22;13348;50.984;5.822;2023-05-17T02:03:56;6.40;99.90
24448;DHT22;13348;50.984;5.822;2023-05-17T02:06:23;6.50;99.90
24448;DHT22;13348;50.984;5.822;2023-05-17T02:08:50;6.40;99.90
24448;DHT22;13348;50.984;5.822;2023-05-17T02:11:16;6.50;99.90
24448;DHT22;13348;50.984;5.822;2023-05-17T02:13:43;6.20;99.90
24448;DHT22;13348;50.984;5.822;2023-05-17T02:16:12;6.10;99.90
24448;DHT22;13348;50.984;5.822;2023-05-17T02:18:39;6.20;99.90
24448;DHT22;13348;50.984;5.822;2023-05-17T02:21:06;6.30;99.90
24448;DHT22;13348;50.984;5.822;2023-05-17T02:23:32;6.40;99.90
24448;DHT22;13348;50.984;5.822;2023-05-17T02:26:00;6.30;99.90
24448;DHT22;13348;50.984;5.822;2023-05-17T02:28:27;6.40;99.90
24448;DHT22;13348;50.984;5.822;2023-05-17T02:30:54;6.40;99.90
24448;DHT22;13348;50.984;5.822;2023-05-17T02:33:22;6.30;99.90
24448;DHT22;13348;50.984;5.822;2023-05-17T02:35:49;6.40;99.90
24448;DHT22;13348;50.984;5.822;2023-05-17T02:38:16;6.30;99.90
24448;DHT22;13348;50.984;5.822;2023-05-17T02:40:43;6.50;99.90
24448;DHT22;13348;50.984;5.822;2023-05-17T02:43:10;6.50;99.90
24448;DHT22;13348;50.984;5.822;2023-05-17T02:45:36;6.30;99.90
24448;DHT22;13348;50.984;5.822;2023-05-17T02:48:03;6.10;99.90
24448;DHT22;13348;50.984;5.822;2023-05-17T02:50:32;6.10;99.90
24448;DHT22;13348;50.984;5.822;2023-05-17T02:52:59;6.00;99.90
24448;DHT22;13348;50.984;5.822;2023-05-17T02:55:26;6.00;99.90
24448;DHT22;13348;50.984;5.822;2023-05-17T02:57:53;5.90;99.90
24448;DHT22;13348;50.984;5.822;2023-05-17T03:00:20;5.80;99.90
24448;DHT22;13348;50.984;5.822;2023-05-17T03:02:47;5.70;99.90
24448;DHT22;13348;50.984;5.822;2023-05-17T03:05:14;5.50;99.90
24448;DHT22;13348;50.984;5.822;2023-05-17T03:07:42;5.70;99.90
24448;DHT22;13348;50.984;5.822;2023-05-17T03:10:09;5.70;99.90
24448;DHT22;13348;50.984;5.822;2023-05-17T03:12:36;5.70;99.90
24448;DHT22;13348;50.984;5.822;2023-05-17T03:15:03;5.80;99.90
24448;DHT22;13348;50.984;5.822;2023-05-17T03:17:30;5.70;99.90
24448;DHT22;13348;50.984;5.822;2023-05-17T03:19:57;5.70;99.90
24448;DHT22;13348;50.984;5.822;2023-05-17T03:22:24;5.60;99.90
24448;DHT22;13348;50.984;5.822;2023-05-17T03:24:52;5.70;99.90
24448;DHT22;13348;50.984;5.822;2023-05-17T03:27:19;5.80;99.90
24448;DHT22;13348;50.984;5.822;2023-05-17T03:29:46;5.80;99.90
24448;DHT22;13348;50.984;5.822;2023-05-17T03:32:13;6.00;99.90
24448;DHT22;13348;50.984;5.822;2023-05-17T03:34:40;6.10;99.90
24448;DHT22;13348;50.984;5.822;2023-05-17T03:37:07;6.10;99.90
24448;DHT22;13348;50.984;5.822;2023-05-17T03:39:34;6.20;99.90
24448;DHT22;13348;50.984;5.822;2023-05-17T03:42:02;6.20;99.90
24448;DHT22;13348;50.984;5.822;2023-05-17T03:44:29;6.20;99.90
24448;DHT22;13348;50.984;5.822;2023-05-17T03:46:56;6.20;99.90
24448;DHT22;13348;50.984;5.822;2023-05-17T03:49:23;6.30;99.90
24448;DHT22;13348;50.984;5.822;2023-05-17T03:51:50;6.30;99.90
24448;DHT22;13348;50.984;5.822;2023-05-17T03:54:16;6.40;99.90
24448;DHT22;13348;50.984;5.822;2023-05-17T03:56:43;6.40;99.90
24448;DHT22;13348;50.984;5.822;2023-05-17T03:59:15;6.50;99.90
24448;DHT22;13348;50.984;5.822;2023-05-17T04:01:42;6.50;99.90
24448;DHT22;13348;50.984;5.822;2023-05-17T04:04:09;6.60;99.90
24448;DHT22;13348;50.984;5.822;2023-05-17T04:06:37;6.70;99.90
24448;DHT22;13348;50.984;5.822;2023-05-17T04:09:04;6.60;99.90
24448;DHT22;13348;50.984;5.822;2023-05-17T04:11:31;6.70;99.90
24448;DHT22;13348;50.984;5.822;2023-05-17T04:13:58;6.90;99.90
24448;DHT22;13348;50.984;5.822;2023-05-17T04:16:26;7.00;99.90
24448;DHT22;13348;50.984;5.822;2023-05-17T04:18:53;7.00;99.90
24448;DHT22;13348;50.984;5.822;2023-05-17T04:21:20;7.00;99.90
24448;DHT22;13348;50.984;5.822;2023-05-17T04:23:47;7.10;99.90
24448;DHT22;13348;50.984;5.822;2023-05-17T04:26:14;7.20;99.90
24448;DHT22;13348;50.984;5.822;2023-05-17T04:28:41;7.30;99.90
24448;DHT22;13348;50.984;5.822;2023-05-17T04:31:08;7.30;99.90
24448;DHT22;13348;50.984;5.822;2023-05-17T04:33:36;7.40;99.90
24448;DHT22;13348;50.984;5.822;2023-05-17T04:36:03;7.50;99.90
24448;DHT22;13348;50.984;5.822;2023-05-17T04:38:30;7.60;99.90
24448;DHT22;13348;50.984;5.822;2023-05-17T04:41:00;7.60;99.90
24448;DHT22;13348;50.984;5.822;2023-05-17T04:43:26;7.70;99.90
24448;DHT22;13348;50.984;5.822;2023-05-17T04:45:55;7.80;99.90
24448;DHT22;13348;50.984;5.822;2023-05-17T04:48:21;7.80;99.90
24448;DHT22;13348;50.984;5.822;2023-05-17T04:50:50;7.80;99.90
24448;DHT22;13348;50.984;5.822;2023-05-17T04:53:17;7.90;99.90
24448;DHT22;13348;50.984;5.822;2023-05-17T04:55:43;7.90;99.90
24448;DHT22;13348;50.984;5.822;2023-05-17T04:58:12;7.90;99.90
24448;DHT22;13348;50.984;5.822;2023-05-17T05:00:39;7.90;99.90
24448;DHT22;13348;50.984;5.822;2023-05-17T05:03:06;8.00;99.90
24448;DHT22;13348;50.984;5.822;2023-05-17T05:05:33;8.00;99.90
24448;DHT22;13348;50.984;5.822;2023-05-17T05:08:01;8.00;99.90
24448;DHT22;13348;50.984;5.822;2023-05-17T05:10:28;8.00;99.90
24448;DHT22;13348;50.984;5.822;2023-05-17T05:12:55;8.10;99.90
24448;DHT22;13348;50.984;5.822;2023-05-17T05:15:22;8.20;99.90
24448;DHT22;13348;50.984;5.822;2023-05-17T05:17:49;8.30;99.90
24448;DHT22;13348;50.984;5.822;2023-05-17T05:20:16;8.30;99.90
24448;DHT22;13348;50.984;5.822;2023-05-17T05:22:43;8.30;99.90
24448;DHT22;13348;50.984;5.822;2023-05-17T05:25:11;8.40;99.90
24448;DHT22;13348;50.984;5.822;2023-05-17T05:27:38;8.40;99.90
24448;DHT22;13348;50.984;5.822;2023-05-17T05:30:05;8.40;99.90
24448;DHT22;13348;50.984;5.822;2023-05-17T05:32:33;8.50;99.90
24448;DHT22;13348;50.984;5.822;2023-05-17T05:35:02;8.70;99.90
24448;DHT22;13348;50.984;5.822;2023-05-17T05:37:30;8.80;99.90
24448;DHT22;13348;50.984;5.822;2023-05-17T05:39:56;8.90;99.90
24448;DHT22;13348;50.984;5.822;2023-05-17T05:42:25;9.20;99.90
24448;DHT22;13348;50.984;5.822;2023-05-17T05:44:54;9.20;99.90
24448;DHT22;13348;50.984;5.822;2023-05-17T05:47:20;9.30;99.90
24448;DHT22;13348;50.984;5.822;2023-05-17T05:49:47;9.20;99.90
24448;DHT22;13348;50.984;5.822;2023-05-17T05:52:14;9.30;99.90
24448;DHT22;13348;50.984;5.822;2023-05-17T05:54:41;9.40;99.90
24448;DHT22;13348;50.984;5.822;2023-05-17T05:57:08;9.50;99.90
24448;DHT22;13348;50.984;5.822;2023-05-17T05:59:36;9.70;99.90
24448;DHT22;13348;50.984;5.822;2023-05-17T06:02:03;9.70;99.90
24448;DHT22;13348;50.984;5.822;2023-05-17T06:04:30;9.70;99.90
24448;DHT22;13348;50.984;5.822;2023-05-17T06:06:57;9.70;99.90
24448;DHT22;13348;50.984;5.822;2023-05-17T06:09:24;9.70;99.90
24448;DHT22;13348;50.984;5.822;2023-05-17T06:11:51;9.70;99.90
24448;DHT22;13348;50.984;5.822;2023-05-17T06:14:18;9.90;99.90
24448;DHT22;13348;50.984;5.822;2023-05-17T06:16:46;9.60;99.90
24448;DHT22;13348;50.984;5.822;2023-05-17T06:19:13;9.70;99.90
24448;DHT22;13348;50.984;5.822;2023-05-17T06:21:40;10.00;99.90
24448;DHT22;13348;50.984;5.822;2023-05-17T06:24:07;10.50;99.90
24448;DHT22;13348;50.984;5.822;2023-05-17T06:26:34;10.60;99.90
24448;DHT22;13348;50.984;5.822;2023-05-17T06:29:01;10.60;99.90
24448;DHT22;13348;50.984;5.822;2023-05-17T06:31:28;10.50;99.90
24448;DHT22;13348;50.984;5.822;2023-05-17T06:33:56;10.50;99.90
24448;DHT22;13348;50.984;5.822;2023-05-17T06:36:23;10.60;99.90
24448;DHT22;13348;50.984;5.822;2023-05-17T06:38:50;10.90;99.90
24448;DHT22;13348;50.984;5.822;2023-05-17T06:41:17;11.20;99.90
24448;DHT22;13348;50.984;5.822;2023-05-17T06:43:44;10.70;99.90
24448;DHT22;13348;50.984;5.822;2023-05-17T06:46:11;10.70;99.90
24448;DHT22;13348;50.984;5.822;2023-05-17T06:48:38;10.90;99.90
24448;DHT22;13348;50.984;5.822;2023-05-17T06:51:06;10.80;99.90
24448;DHT22;13348;50.984;5.822;2023-05-17T06:53:33;10.80;99.90
24448;DHT22;13348;50.984;5.822;2023-05-17T06:56:00;10.60;99.90
24448;DHT22;13348;50.984;5.822;2023-05-17T06:58:26;10.60;99.90
24448;DHT22;13348;50.984;5.822;2023-05-17T07:00:53;10.70;99.90
24448;DHT22;13348;50.984;5.822;2023-05-17T07:03:20;10.70;99.90
24448;DHT22;13348;50.984;5.822;2023-05-17T07:05:47;10.70;99.90
24448;DHT22;13348;50.984;5.822;2023-05-17T07:08:15;10.70;99.90
24448;DHT22;13348;50.984;5.822;2023-05-17T07:10:42;10.80;99.90
24448;DHT22;13348;50.984;5.822;2023-05-17T07:13:09;10.80;99.90
24448;DHT22;13348;50.984;5.822;2023-05-17T07:15:36;10.70;99.90
24448;DHT22;13348;50.984;5.822;2023-05-17T07:18:03;11.20;99.90
24448;DHT22;13348;50.984;5.822;2023-05-17T07:20:30;11.80;99.90
24448;DHT22;13348;50.984;5.822;2023-05-17T07:22:57;11.40;99.90
24448;DHT22;13348;50.984;5.822;2023-05-17T07:25:25;11.40;99.90
24448;DHT22;13348;50.984;5.822;2023-05-17T07:27:52;11.70;99.90
24448;DHT22;13348;50.984;5.822;2023-05-17T07:30:19;11.80;99.90
24448;DHT22;13348;50.984;5.822;2023-05-17T07:32:46;12.00;99.90
24448;DHT22;13348;50.984;5.822;2023-05-17T07:35:13;11.70;99.90
24448;DHT22;13348;50.984;5.822;2023-05-17T07:37:40;11.60;99.90
24448;DHT22;13348;50.984;5.822;2023-05-17T07:40:07;11.50;99.90
24448;DHT22;13348;50.984;5.822;2023-05-17T07:42:36;11.60;99.90
24448;DHT22;13348;50.984;5.822;2023-05-17T07:45:03;12.00;99.90
24448;DHT22;13348;50.984;5.822;2023-05-17T07:47:30;11.70;99.90
24448;DHT22;13348;50.984;5.822;2023-05-17T07:50:01;11.80;99.90
24448;DHT22;13348;50.984;5.822;2023-05-17T07:52:28;12.20;99.90
24448;DHT22;13348;50.984;5.822;2023-05-17T07:54:55;11.90;99.90
24448;DHT22;13348;50.984;5.822;2023-05-17T07:57:22;11.80;99.90
24448;DHT22;13348;50.984;5.822;2023-05-17T07:59:50;12.00;99.90
24448;DHT22;13348;50.984;5.822;2023-05-17T08:02:17;11.90;99.90
24448;DHT22;13348;50.984;5.822;2023-05-17T08:04:44;11.90;99.90
24448;DHT22;13348;50.984;5.822;2023-05-17T08:07:11;12.20;99.90
24448;DHT22;13348;50.984;5.822;2023-05-17T08:09:38;12.20;99.90
24448;DHT22;13348;50.984;5.822;2023-05-17T08:12:08;12.20;99.90
24448;DHT22;13348;50.984;5.822;2023-05-17T08:14:35;12.80;99.90
24448;DHT22;13348;50.984;5.822;2023-05-17T08:17:03;13.20;99.90
24448;DHT22;13348;50.984;5.822;2023-05-17T08:19:30;13.10;99.90
24448;DHT22;13348;50.984;5.822;2023-05-17T08:21:57;13.00;99.90
24448;DHT22;13348;50.984;5.822;2023-05-17T08:24:24;13.10;99.90
24448;DHT22;13348;50.984;5.822;2023-05-17T08:26:51;13.00;99.90
24448;DHT22;13348;50.984;5.822;2023-05-17T08:29:18;12.60;99.90
24448;DHT22;13348;50.984;5.822;2023-05-17T08:31:45;12.30;99.90
24448;DHT22;13348;50.984;5.822;2023-05-17T08:34:13;12.40;99.90
24448;DHT22;13348;50.984;5.822;2023-05-17T08:36:40;12.10;99.90
24448;DHT22;13348;50.984;5.822;2023-05-17T08:39:07;12.30;99.90
24448;DHT22;13348;50.984;5.822;2023-05-17T08:41:34;12.60;99.90
24448;DHT22;13348;50.984;5.822;2023-05-17T08:44:01;12.80;99.90
24448;DHT22;13348;50.984;5.822;2023-05-17T08:46:28;13.20;99.90
24448;DHT22;13348;50.984;5.822;2023-05-17T08:48:55;13.50;99.90
24448;DHT22;13348;50.984;5.822;2023-05-17T08:51:27;13.10;99.90
24448;DHT22;13348;50.984;5.822;2023-05-17T08:53:54;13.10;99.90
24448;DHT22;13348;50.984;5.822;2023-05-17T08:56:22;13.70;99.90
24448;DHT22;13348;50.984;5.822;2023-05-17T08:58:51;13.90;99.90
24448;DHT22;13348;50.984;5.822;2023-05-17T09:01:19;13.90;99.90
24448;DHT22;13348;50.984;5.822;2023-05-17T09:03:46;13.80;99.90
24448;DHT22;13348;50.984;5.822;2023-05-17T09:06:14;13.60;99.90
24448;DHT22;13348;50.984;5.822;2023-05-17T09:08:44;13.30;99.90
24448;DHT22;13348;50.984;5.822;2023-05-17T09:11:12;13.10;99.90
24448;DHT22;13348;50.984;5.822;2023-05-17T09:13:38;12.80;99.90
24448;DHT22;13348;50.984;5.822;2023-05-17T09:16:11;12.30;99.90
24448;DHT22;13348;50.984;5.822;2023-05-17T09:18:38;12.40;99.90
24448;DHT22;13348;50.984;5.822;2023-05-17T09:21:05;12.70;99.90
24448;DHT22;13348;50.984;5.822;2023-05-17T09:23:36;12.70;99.90
24448;DHT22;13348;50.984;5.822;2023-05-17T09:26:05;12.60;99.90
24448;DHT22;13348;50.984;5.822;2023-05-17T09:28:35;12.60;99.90
24448;DHT22;13348;50.984;5.822;2023-05-17T09:31:04;12.80;99.90
24448;DHT22;13348;50.984;5.822;2023-05-17T09:33:31;13.30;99.90
24448;DHT22;13348;50.984;5.822;2023-05-17T09:35:58;13.20;99.90
24448;DHT22;13348;50.984;5.822;2023-05-17T09:38:26;13.70;99.90
24448;DHT22;13348;50.984;5.822;2023-05-17T09:40:53;13.50;99.90
24448;DHT22;13348;50.984;5.822;2023-05-17T09:43:23;14.60;99.90
24448;DHT22;13348;50.984;5.822;2023-05-17T09:45:54;15.30;99.90
24448;DHT22;13348;50.984;5.822;2023-05-17T09:48:21;15.50;99.90
24448;DHT22;13348;50.984;5.822;2023-05-17T09:50:48;15.80;99.90
24448;DHT22;13348;50.984;5.822;2023-05-17T09:53:21;15.70;99.90
24448;DHT22;13348;50.984;5.822;2023-05-17T09:55:49;15.40;99.90
24448;DHT22;13348;50.984;5.822;2023-05-17T09:58:17;15.50;99.90
24448;DHT22;13348;50.984;5.822;2023-05-17T10:00:45;16.10;99.90
24448;DHT22;13348;50.984;5.822;2023-05-17T10:03:17;15.90;99.90
24448;DHT22;13348;50.984;5.822;2023-05-17T10:05:44;15.00;99.90
24448;DHT22;13348;50.984;5.822;2023-05-17T10:08:13;14.30;99.90
24448;DHT22;13348;50.984;5.822;2023-05-17T10:10:40;15.70;99.90
24448;DHT22;13348;50.984;5.822;2023-05-17T10:13:07;16.10;99.90
24448;DHT22;13348;50.984;5.822;2023-05-17T10:15:35;16.30;99.90
24448;DHT22;13348;50.984;5.822;2023-05-17T10:18:04;16.60;99.90
24448;DHT22;13348;50.984;5.822;2023-05-17T10:20:32;17.10;99.90
24448;DHT22;13348;50.984;5.822;2023-05-17T10:22:59;16.60;99.90
24448;DHT22;13348;50.984;5.822;2023-05-17T10:25:28;16.60;99.90
24448;DHT22;13348;50.984;5.822;2023-05-17T10:27:55;16.80;99.90
24448;DHT22;13348;50.984;5.822;2023-05-17T10:30:22;16.60;99.90
24448;DHT22;13348;50.984;5.822;2023-05-17T10:32:51;16.60;99.90
24448;DHT22;13348;50.984;5.822;2023-05-17T10:35:20;16.10;99.90
24448;DHT22;13348;50.984;5.822;2023-05-17T10:37:47;15.30;99.90
24448;DHT22;13348;50.984;5.822;2023-05-17T10:40:14;14.80;99.90
24448;DHT22;13348;50.984;5.822;2023-05-17T10:42:44;15.50;99.90
24448;DHT22;13348;50.984;5.822;2023-05-17T10:45:12;16.40;99.90
24448;DHT22;13348;50.984;5.822;2023-05-17T10:47:39;16.90;99.90
24448;DHT22;13348;50.984;5.822;2023-05-17T10:50:08;15.20;99.90
24448;DHT22;13348;50.984;5.822;2023-05-17T10:52:39;14.90;99.90
24448;DHT22;13348;50.984;5.822;2023-05-17T10:55:11;15.30;99.90
24448;DHT22;13348;50.984;5.822;2023-05-17T10:57:38;16.60;99.90
24448;DHT22;13348;50.984;5.822;2023-05-17T11:00:06;16.60;99.90
24448;DHT22;13348;50.984;5.822;2023-05-17T11:02:39;17.00;99.90
24448;DHT22;13348;50.984;5.822;2023-05-17T11:05:06;16.50;99.90
24448;DHT22;13348;50.984;5.822;2023-05-17T11:07:50;15.70;99.90
24448;DHT22;13348;50.984;5.822;2023-05-17T11:10:17;15.20;99.90
24448;DHT22;13348;50.984;5.822;2023-05-17T11:12:44;16.70;99.90
24448;DHT22;13348;50.984;5.822;2023-05-17T11:15:13;15.80;99.90
24448;DHT22;13348;50.984;5.822;2023-05-17T11:17:47;16.00;99.90
24448;DHT22;13348;50.984;5.822;2023-05-17T11:20:30;16.80;99.90
24448;DHT22;13348;50.984;5.822;2023-05-17T11:22:59;16.80;99.90
24448;DHT22;13348;50.984;5.822;2023-05-17T11:25:26;17.50;99.90
24448;DHT22;13348;50.984;5.822;2023-05-17T11:27:54;16.10;99.90
24448;DHT22;13348;50.984;5.822;2023-05-17T11:30:21;16.60;99.90
24448;DHT22;13348;50.984;5.822;2023-05-17T11:32:49;17.10;99.90
24448;DHT22;13348;50.984;5.822;2023-05-17T11:35:16;17.00;99.90
24448;DHT22;13348;50.984;5.822;2023-05-17T11:37:43;16.40;99.90
24448;DHT22;13348;50.984;5.822;2023-05-17T11:40:12;17.10;99.90
24448;DHT22;13348;50.984;5.822;2023-05-17T11:42:40;17.20;99.90
24448;DHT22;13348;50.984;5.822;2023-05-17T11:45:07;17.20;99.90
24448;DHT22;13348;50.984;5.822;2023-05-17T11:47:37;16.80;99.90
24448;DHT22;13348;50.984;5.822;2023-05-17T11:50:05;16.60;99.90
24448;DHT22;13348;50.984;5.822;2023-05-17T11:52:32;17.30;99.90
24448;DHT22;13348;50.984;5.822;2023-05-17T11:54:59;17.90;99.90
24448;DHT22;13348;50.984;5.822;2023-05-17T11:57:29;18.00;99.90
24448;DHT22;13348;50.984;5.822;2023-05-17T11:59:59;17.60;99.90
24448;DHT22;13348;50.984;5.822;2023-05-17T12:02:27;17.30;99.90
24448;DHT22;13348;50.984;5.822;2023-05-17T12:04:54;17.00;99.90
24448;DHT22;13348;50.984;5.822;2023-05-17T12:07:21;17.50;99.90
24448;DHT22;13348;50.984;5.822;2023-05-17T12:09:48;17.40;99.90
24448;DHT22;13348;50.984;5.822;2023-05-17T12:12:15;16.20;99.90
24448;DHT22;13348;50.984;5.822;2023-05-17T12:14:44;15.80;99.90
24448;DHT22;13348;50.984;5.822;2023-05-17T12:17:15;16.80;99.90
24448;DHT22;13348;50.984;5.822;2023-05-17T12:19:45;17.70;99.90
24448;DHT22;13348;50.984;5.822;2023-05-17T12:22:11;17.00;99.90
24448;DHT22;13348;50.984;5.822;2023-05-17T12:24:39;16.80;99.90
24448;DHT22;13348;50.984;5.822;2023-05-17T12:27:06;16.60;99.90
24448;DHT22;13348;50.984;5.822;2023-05-17T12:29:33;16.90;99.90
24448;DHT22;13348;50.984;5.822;2023-05-17T12:32:01;18.00;99.90
24448;DHT22;13348;50.984;5.822;2023-05-17T12:34:29;17.70;99.90
24448;DHT22;13348;50.984;5.822;2023-05-17T12:36:56;17.50;99.90
24448;DHT22;13348;50.984;5.822;2023-05-17T12:39:23;19.30;99.90
24448;DHT22;13348;50.984;5.822;2023-05-17T12:41:50;17.70;99.90
24448;DHT22;13348;50.984;5.822;2023-05-17T12:44:18;16.00;99.90
24448;DHT22;13348;50.984;5.822;2023-05-17T12:46:46;15.70;99.90
24448;DHT22;13348;50.984;5.822;2023-05-17T12:49:19;17.20;99.90
24448;DHT22;13348;50.984;5.822;2023-05-17T12:51:47;16.50;99.90
24448;DHT22;13348;50.984;5.822;2023-05-17T12:54:14;16.30;99.90
24448;DHT22;13348;50.984;5.822;2023-05-17T12:56:50;16.10;99.90
24448;DHT22;13348;50.984;5.822;2023-05-17T12:59:17;16.50;99.90
24448;DHT22;13348;50.984;5.822;2023-05-17T13:01:46;17.50;99.90
24448;DHT22;13348;50.984;5.822;2023-05-17T13:04:13;17.70;99.90
24448;DHT22;13348;50.984;5.822;2023-05-17T13:06:46;18.20;98.00
24448;DHT22;13348;50.984;5.822;2023-05-17T13:09:13;18.40;99.50
24448;DHT22;13348;50.984;5.822;2023-05-17T13:11:40;18.70;99.40
24448;DHT22;13348;50.984;5.822;2023-05-17T13:14:07;18.90;97.90
24448;DHT22;13348;50.984;5.822;2023-05-17T13:16:36;18.90;99.90
24448;DHT22;13348;50.984;5.822;2023-05-17T13:19:10;19.00;99.90
24448;DHT22;13348;50.984;5.822;2023-05-17T13:21:37;18.20;99.90
24448;DHT22;13348;50.984;5.822;2023-05-17T13:24:07;16.50;99.90
24448;DHT22;13348;50.984;5.822;2023-05-17T13:26:34;16.00;99.90
24448;DHT22;13348;50.984;5.822;2023-05-17T13:29:01;16.50;99.90
24448;DHT22;13348;50.984;5.822;2023-05-17T13:31:28;18.20;99.90
24448;DHT22;13348;50.984;5.822;2023-05-17T13:33:55;18.30;99.90
24448;DHT22;13348;50.984;5.822;2023-05-17T13:36:22;18.20;99.90
24448;DHT22;13348;50.984;5.822;2023-05-17T13:38:49;18.10;99.90
24448;DHT22;13348;50.984;5.822;2023-05-17T13:41:17;18.50;99.90
24448;DHT22;13348;50.984;5.822;2023-05-17T13:43:44;17.70;99.90
24448;DHT22;13348;50.984;5.822;2023-05-17T13:46:11;18.10;99.90
24448;DHT22;13348;50.984;5.822;2023-05-17T13:48:38;17.90;99.90
24448;DHT22;13348;50.984;5.822;2023-05-17T13:51:05;18.00;98.10
24448;DHT22;13348;50.984;5.822;2023-05-17T13:53:32;18.20;99.90
24448;DHT22;13348;50.984;5.822;2023-05-17T13:55:58;19.20;99.90
24448;DHT22;13348;50.984;5.822;2023-05-17T13:58:27;19.60;99.90
24448;DHT22;13348;50.984;5.822;2023-05-17T14:00:54;19.40;97.00
24448;DHT22;13348;50.984;5.822;2023-05-17T14:03:21;19.30;98.20
24448;DHT22;13348;50.984;5.822;2023-05-17T14:05:48;19.20;98.10
24448;DHT22;13348;50.984;5.822;2023-05-17T14:08:17;18.80;97.20
24448;DHT22;13348;50.984;5.822;2023-05-17T14:10:44;18.40;96.90
24448;DHT22;13348;50.984;5.822;2023-05-17T14:13:11;18.00;97.00
24448;DHT22;13348;50.984;5.822;2023-05-17T14:15:39;18.30;96.40
24448;DHT22;13348;50.984;5.822;2023-05-17T14:18:06;17.80;98.20
24448;DHT22;13348;50.984;5.822;2023-05-17T14:20:33;18.40;99.00
24448;DHT22;13348;50.984;5.822;2023-05-17T14:23:00;18.30;99.60
24448;DHT22;13348;50.984;5.822;2023-05-17T14:25:27;18.30;98.40
24448;DHT22;13348;50.984;5.822;2023-05-17T14:27:54;18.40;98.40
24448;DHT22;13348;50.984;5.822;2023-05-17T14:30:21;18.40;97.60
24448;DHT22;13348;50.984;5.822;2023-05-17T14:32:49;19.80;97.20
24448;DHT22;13348;50.984;5.822;2023-05-17T14:35:16;19.10;99.00
24448;DHT22;13348;50.984;5.822;2023-05-17T14:37:43;18.90;99.10
24448;DHT22;13348;50.984;5.822;2023-05-17T14:40:10;18.20;99.90
24448;DHT22;13348;50.984;5.822;2023-05-17T14:42:37;18.10;97.50
24448;DHT22;13348;50.984;5.822;2023-05-17T14:45:05;18.30;96.20
24448;DHT22;13348;50.984;5.822;2023-05-17T14:47:32;19.00;97.70
24448;DHT22;13348;50.984;5.822;2023-05-17T14:50:00;18.70;96.10
24448;DHT22;13348;50.984;5.822;2023-05-17T14:52:27;18.70;99.70
24448;DHT22;13348;50.984;5.822;2023-05-17T14:54:54;18.70;96.80
24448;DHT22;13348;50.984;5.822;2023-05-17T14:57:21;18.30;95.80
24448;DHT22;13348;50.984;5.822;2023-05-17T14:59:48;18.70;93.90
24448;DHT22;13348;50.984;5.822;2023-05-17T15:02:14;19.60;95.10
24448;DHT22;13348;50.984;5.822;2023-05-17T15:04:41;19.60;93.80
24448;DHT22;13348;50.984;5.822;2023-05-17T15:07:10;19.00;94.80
24448;DHT22;13348;50.984;5.822;2023-05-17T15:09:37;18.50;95.30
24448;DHT22;13348;50.984;5.822;2023-05-17T15:12:06;18.20;96.50
24448;DHT22;13348;50.984;5.822;2023-05-17T15:14:33;18.30;96.30
24448;DHT22;13348;50.984;5.822;2023-05-17T15:17:00;18.20;96.80
24448;DHT22;13348;50.984;5.822;2023-05-17T15:19:28;17.10;97.50
24448;DHT22;13348;50.984;5.822;2023-05-17T15:21:55;17.20;96.20
24448;DHT22;13348;50.984;5.822;2023-05-17T15:24:24;17.50;97.10
24448;DHT22;13348;50.984;5.822;2023-05-17T15:26:51;18.00;99.90
24448;DHT22;13348;50.984;5.822;2023-05-17T15:29:18;18.00;96.50
24448;DHT22;13348;50.984;5.822;2023-05-17T15:31:44;18.10;95.80
24448;DHT22;13348;50.984;5.822;2023-05-17T15:34:12;18.10;95.60
24448;DHT22;13348;50.984;5.822;2023-05-17T15:36:38;18.20;96.30
24448;DHT22;13348;50.984;5.822;2023-05-17T15:39:05;18.00;96.40